createdAt,value
2023-02-26T00:03:44.919Z,97593.91
2023-02-26T00:08:50.190Z,97420.56
2023-02-26T00:13:54.290Z,97635.53
2023-02-26T00:18:59.087Z,97643.25
2023-02-26T00:24:06.581Z,97283.28
2023-02-26T00:29:10.405Z,97642.66
2023-02-26T00:34:14.969Z,97642.78
2023-02-26T00:39:38.884Z,97651.13
2023-02-26T00:44:43.517Z,97654.41
2023-02-26T00:49:59.339Z,97644.84
2023-02-26T00:55:08.251Z,97544.22
2023-02-26T01:00:14.903Z,97648.25
2023-02-26T01:05:22.068Z,97546.75
2023-02-26T01:10:33.167Z,97635.13
2023-02-26T01:15:37.307Z,97587.53
2023-02-26T01:20:46.356Z,97647.75
2023-02-26T01:25:55.718Z,97645.28
2023-02-26T01:31:05.264Z,97648.34
2023-02-26T01:36:13.567Z,97655.72
2023-02-26T01:41:28.276Z,97392.88
2023-02-26T01:46:38.611Z,97622.22
2023-02-26T01:51:46.535Z,97632.09
2023-02-26T01:56:56.879Z,97659.41
2023-02-26T02:02:01.657Z,97655.69
2023-02-26T02:07:06.311Z,97628.69
2023-02-26T02:12:25.398Z,97656.09
2023-02-26T02:17:38.631Z,97437.19
2023-02-26T02:22:54.192Z,97670.84
2023-02-26T02:28:06.625Z,97629.19
2023-02-26T02:33:21.111Z,97547.97
2023-02-26T02:38:27.888Z,97535.16
2023-02-26T02:43:35.552Z,97634.00
2023-02-26T02:48:44.747Z,97682.50
2023-02-26T02:53:53.992Z,97652.88
2023-02-26T02:59:06.101Z,97443.09
2023-02-26T03:04:15.167Z,97444.31
2023-02-26T03:09:20.912Z,97406.78
2023-02-26T03:14:24.661Z,97724.53
2023-02-26T03:19:39.720Z,97307.06
2023-02-26T03:24:51.264Z,97145.66
2023-02-26T03:30:05.026Z,97711.66
2023-02-26T03:35:20.140Z,97714.28
2023-02-26T03:40:30.508Z,97642.84
2023-02-26T03:45:38.399Z,97753.44
2023-02-26T03:50:48.798Z,97484.06
2023-02-26T03:56:16.155Z,97728.03
2023-02-26T04:01:50.291Z,97681.56
2023-02-26T04:06:56.871Z,97736.94
2023-02-26T04:12:00.347Z,97612.97
2023-02-26T04:17:04.487Z,97634.66
2023-02-26T04:22:10.902Z,97724.84
2023-02-26T04:27:15.706Z,97729.25
2023-02-26T04:32:22.702Z,97602.53
2023-02-26T04:37:27.701Z,97739.09
2023-02-26T04:42:31.241Z,97768.66
2023-02-26T04:47:35.474Z,97777.81
2023-02-26T04:52:41.242Z,97587.16
2023-02-26T04:57:45.290Z,97784.28
2023-02-26T05:02:48.717Z,97592.00
2023-02-26T05:07:59.143Z,97761.09
2023-02-26T05:13:27.873Z,97689.63
2023-02-26T05:18:32.513Z,97263.34
2023-02-26T05:23:37.516Z,97673.81
2023-02-26T05:28:40.922Z,97748.88
2023-02-26T05:33:45.307Z,97668.19
2023-02-26T05:38:50.215Z,97807.97
2023-02-26T05:43:53.800Z,97631.16
2023-02-26T05:48:57.320Z,97458.44
2023-02-26T05:54:04.238Z,97768.63
2023-02-26T05:59:08.245Z,97615.19
2023-02-26T06:04:11.735Z,97512.97
2023-02-26T06:09:16.725Z,97853.59
2023-02-26T06:14:20.537Z,97685.06
2023-02-26T06:19:24.143Z,97859.78
2023-02-26T06:24:28.876Z,97563.53
2023-02-26T06:29:32.302Z,97857.88
2023-02-26T06:34:35.629Z,97882.91
2023-02-26T06:39:40.470Z,97641.50
2023-02-26T06:44:43.967Z,97906.34
2023-02-26T06:49:48.409Z,97881.72
2023-02-26T06:54:53.115Z,97846.28
2023-02-26T06:59:56.426Z,97760.28
2023-02-26T07:04:59.885Z,97911.09
2023-02-26T07:10:05.059Z,97865.94
2023-02-26T07:15:09.392Z,97955.22
2023-02-26T07:20:14.595Z,97921.94
2023-02-26T07:25:20.045Z,97970.13
2023-02-26T07:30:23.695Z,97923.78
2023-02-26T07:35:27.177Z,97962.69
2023-02-26T07:40:32.056Z,97886.31
2023-02-26T07:45:35.489Z,97930.69
2023-02-26T07:50:38.860Z,97977.19
2023-02-26T07:55:43.792Z,97981.81
2023-02-26T08:00:47.465Z,97954.13
2023-02-26T08:05:51.071Z,97983.44
2023-02-26T08:10:56.015Z,97954.19
2023-02-26T08:15:59.534Z,97990.41
2023-02-26T08:21:03.035Z,97987.94
2023-02-26T08:26:09.984Z,97959.03
2023-02-26T08:31:13.720Z,97669.53
2023-02-26T08:36:17.367Z,98005.41
2023-02-26T08:41:22.103Z,97831.84
2023-02-26T08:46:25.975Z,97618.44
2023-02-26T08:51:29.677Z,97871.47
2023-02-26T08:56:34.554Z,97961.13
2023-02-26T09:01:38.013Z,97999.56
2023-02-26T09:06:41.547Z,98066.88
2023-02-26T09:11:46.711Z,97972.59
2023-02-26T09:16:51.302Z,98036.16
2023-02-26T09:21:54.944Z,98052.44
2023-02-26T09:27:00.730Z,97987.47
2023-02-26T09:32:05.308Z,97849.91
2023-02-26T09:37:11.736Z,98056.38
2023-02-26T09:42:29.679Z,98060.13
2023-02-26T09:47:41.561Z,97964.50
2023-02-26T09:52:50.710Z,98067.19
2023-02-26T09:58:00.959Z,98018.75
2023-02-26T10:03:17.810Z,98076.94
2023-02-26T10:08:26.533Z,98018.75
2023-02-26T10:13:48.973Z,98081.97
2023-02-26T10:19:05.852Z,98089.22
2023-02-26T10:24:15.094Z,98033.28
2023-02-26T10:29:28.334Z,98094.97
2023-02-26T10:34:37.010Z,98091.47
2023-02-26T10:39:45.747Z,98096.47
2023-02-26T10:45:00.766Z,98041.38
2023-02-26T10:50:06.353Z,98107.59
2023-02-26T10:55:33.538Z,98100.63
2023-02-26T11:00:38.402Z,98099.09
2023-02-26T11:05:42.448Z,98103.13
2023-02-26T11:10:51.743Z,98108.56
2023-02-26T11:16:03.652Z,98110.19
2023-02-26T11:21:09.515Z,98018.00
2023-02-26T11:26:18.550Z,98113.41
2023-02-26T11:31:27.155Z,98101.25
2023-02-26T11:36:34.152Z,98049.50
2023-02-26T11:41:39.687Z,98101.06
2023-02-26T11:46:47.129Z,98104.81
2023-02-26T11:52:07.975Z,98104.38
2023-02-26T11:57:18.326Z,98107.53
2023-02-26T12:02:28.402Z,98084.81
2023-02-26T12:07:33.447Z,98109.34
2023-02-26T12:13:09.465Z,98123.69
2023-02-26T12:18:32.333Z,98106.75
2023-02-26T12:23:59.698Z,98098.56
2023-02-26T12:29:17.816Z,98110.25
2023-02-26T12:34:50.011Z,98108.16
2023-02-26T12:40:06.492Z,98103.97
2023-02-26T12:45:32.007Z,98108.69
2023-02-26T12:50:51.613Z,98126.84
2023-02-26T12:56:10.700Z,98017.25
2023-02-26T13:01:56.049Z,98024.19
2023-02-26T13:07:28.344Z,98129.91
2023-02-26T13:12:44.250Z,98098.16
2023-02-26T13:17:58.831Z,97979.44
2023-02-26T13:23:11.100Z,98131.81
2023-02-26T13:28:23.281Z,98133.16
2023-02-26T13:33:32.925Z,98075.91
2023-02-26T13:38:50.109Z,98132.72
2023-02-26T13:44:17.145Z,98122.03
2023-02-26T13:49:26.858Z,98134.69
2023-02-26T13:54:42.583Z,98019.50
2023-02-26T13:59:55.441Z,98137.31
2023-02-26T14:05:00.688Z,98143.44
2023-02-26T14:10:18.127Z,98132.22
2023-02-26T14:15:30.851Z,97912.94
2023-02-26T14:20:36.734Z,98153.25
2023-02-26T14:25:43.664Z,98147.59
2023-02-26T14:30:49.659Z,98140.69
2023-02-26T14:35:54.670Z,98111.59
2023-02-26T14:41:06.001Z,98118.50
2023-02-26T14:46:12.171Z,97754.81
2023-02-26T14:51:25.516Z,98156.97
2023-02-26T14:56:40.686Z,98165.94
2023-02-26T15:01:53.061Z,98177.53
2023-02-26T15:07:12.514Z,98123.63
2023-02-26T15:12:29.979Z,98172.53
2023-02-26T15:17:47.133Z,98174.50
2023-02-26T15:23:04.214Z,98073.34
2023-02-26T15:28:13.749Z,98125.94
2023-02-26T15:33:20.492Z,98192.28
2023-02-26T15:38:24.514Z,98187.81
2023-02-26T15:43:30.066Z,98170.00
2023-02-26T15:48:38.340Z,98194.28
2023-02-26T15:53:44.728Z,98209.69
2023-02-26T15:58:53.984Z,98156.03
2023-02-26T16:03:59.457Z,98145.13
2023-02-26T16:09:05.986Z,98188.97
2023-02-26T16:14:18.714Z,98220.00
2023-02-26T16:19:32.994Z,98166.63
2023-02-26T16:24:36.552Z,98251.34
2023-02-26T16:29:54.694Z,98209.88
2023-02-26T16:35:01.788Z,98197.16
2023-02-26T16:40:20.756Z,98199.66
2023-02-26T16:45:49.380Z,98246.69
2023-02-26T16:51:01.670Z,98308.38
2023-02-26T16:56:08.841Z,97908.72
2023-02-26T17:01:18.043Z,98285.22
2023-02-26T17:06:23.807Z,98329.84
2023-02-26T17:11:30.302Z,98291.69
2023-02-26T17:16:35.588Z,98182.50
2023-02-26T17:21:43.774Z,98329.31
2023-02-26T17:26:52.974Z,98100.22
2023-02-26T17:31:58.041Z,98235.69
2023-02-26T17:37:07.754Z,98322.09
2023-02-26T17:42:13.732Z,98366.41
2023-02-26T17:47:21.799Z,98243.03
2023-02-26T17:52:26.554Z,98397.09
2023-02-26T17:57:32.675Z,98322.91
2023-02-26T18:02:37.668Z,98199.28
2023-02-26T18:07:42.262Z,98408.94
2023-02-26T18:12:46.066Z,98148.69
2023-02-26T18:17:51.107Z,98236.97
2023-02-26T18:22:54.816Z,98294.41
2023-02-26T18:28:00.601Z,98304.19
2023-02-26T18:33:05.973Z,98246.38
2023-02-26T18:38:12.032Z,98383.66
2023-02-26T18:43:16.006Z,98125.16
2023-02-26T18:48:24.976Z,98392.28
2023-02-26T18:53:28.727Z,98389.44
2023-02-26T18:58:32.405Z,98413.13
2023-02-26T19:03:37.232Z,98345.47
2023-02-26T19:08:40.778Z,98274.59
2023-02-26T19:13:45.427Z,98355.59
2023-02-26T19:18:50.549Z,98432.91
2023-02-26T19:23:54.285Z,98435.09
2023-02-26T19:28:57.672Z,98426.81
2023-02-26T19:34:04.936Z,98382.03
2023-02-26T19:39:08.442Z,98428.25
2023-02-26T19:44:11.912Z,98334.66
2023-02-26T19:49:18.097Z,98446.59
2023-02-26T19:54:23.995Z,98455.53
2023-02-26T19:59:27.811Z,98411.28
2023-02-26T20:04:33.711Z,98480.06
2023-02-26T20:09:37.294Z,98437.53
2023-02-26T20:14:40.801Z,98484.44
2023-02-26T20:19:46.939Z,98483.56
2023-02-26T20:24:52.194Z,98467.31
2023-02-26T20:29:55.820Z,98241.00
2023-02-26T20:35:00.772Z,98505.53
2023-02-26T20:40:06.149Z,98509.41
2023-02-26T20:45:10.056Z,98514.13
2023-02-26T20:50:15.148Z,98513.25
2023-02-26T20:55:21.566Z,98522.59
2023-02-26T21:00:25.814Z,98527.38
2023-02-26T21:05:30.804Z,98157.22
2023-02-26T21:10:34.456Z,98287.28
2023-02-26T21:15:38.289Z,98526.69
2023-02-26T21:20:43.304Z,98535.34
2023-02-26T21:25:47.090Z,98446.59
2023-02-26T21:30:52.545Z,98528.31
2023-02-26T21:35:57.608Z,98232.25
2023-02-26T21:41:01.173Z,98436.66
2023-02-26T21:46:05.021Z,98501.84
2023-02-26T21:51:10.081Z,98384.09
2023-02-26T21:56:13.496Z,98535.09
2023-02-26T22:01:16.999Z,98501.16
2023-02-26T22:06:21.967Z,98543.13
2023-02-26T22:11:25.740Z,98433.56
2023-02-26T22:16:29.532Z,98526.81
2023-02-26T22:21:34.430Z,98435.88
2023-02-26T22:26:38.216Z,98537.16
2023-02-26T22:31:41.751Z,98486.91
2023-02-26T22:36:46.599Z,98530.91
2023-02-26T22:41:50.040Z,98510.31
2023-02-26T22:46:53.451Z,98544.81
2023-02-26T22:51:58.293Z,98530.78
2023-02-26T22:57:01.700Z,98536.47
2023-02-26T23:02:05.302Z,98538.34
2023-02-26T23:07:10.329Z,98520.88
2023-02-26T23:12:17.900Z,98229.72
2023-02-26T23:17:21.730Z,98468.84
2023-02-26T23:22:26.630Z,98510.69
2023-02-26T23:27:30.060Z,98512.97
2023-02-26T23:32:33.557Z,98459.72
2023-02-26T23:37:38.417Z,98488.75
2023-02-26T23:42:45.618Z,98506.00
2023-02-26T23:47:51.395Z,98552.16
2023-02-26T23:52:56.290Z,98547.88
2023-02-26T23:58:02.507Z,98456.72
